Time;durP1;ratioP1;P1;durP2;ratioP2;P2;SDS_P1;SDS_P2;PMS_P1;PMS_P2;Temp;Humidity;BMP_temperature;BMP_pressure;BME280_temperature;BME280_humidity;BME280_pressure;Samples;Min_cycle;Max_cycle;Signal;HPM_P1;HPM_P2
2021/10/08 00:02:02;;;;;;;;;;;;;;;6.10;94.89;99152.24;1751080;82;21061;-86
2021/10/08 00:04:27;;;;;;;;;;;;;;;6.10;94.24;99155.75;1750715;81;20162;-81
2021/10/08 00:06:53;;;;;;;;;;;;;;;6.04;95.02;99156.64;1751067;81;20171;-86
2021/10/08 00:09:22;;;;;;;;;;;;;;;5.98;95.67;99157.52;1750856;82;20142;-82
2021/10/08 00:11:56;;;;;;;;;;;;;;;5.90;95.73;99159.15;1750437;81;20163;-86
2021/10/08 00:14:19;;;;;;;;;;;;;;;5.90;95.89;99160.48;1748278;82;22711;-82
2021/10/08 00:16:44;;;;;;;;;;;;;;;5.88;95.84;99159.86;1750726;82;20135;-82
2021/10/08 00:19:10;;;;;;;;;;;;;;;5.78;96.37;99153.65;1750882;82;20177;-82
2021/10/08 00:21:38;;;;;;;;;;;;;;;5.78;96.16;99151.48;1750748;82;20154;-82
2021/10/08 00:24:04;;;;;;;;;;;;;;;5.73;96.67;99160.23;1750718;82;20143;-82
2021/10/08 00:26:29;;;;;;;;;;;;;;;5.70;96.79;99162.00;1750962;81;21954;-82
2021/10/08 00:28:55;;;;;;;;;;;;;;;5.70;96.40;99156.62;1750848;82;20288;-82
2021/10/08 00:31:21;;;;;;;;;;;;;;;5.71;96.49;99158.27;1750748;82;20204;-83
2021/10/08 00:33:47;;;;;;;;;;;;;;;5.72;95.94;99161.25;1751033;82;20153;-82
2021/10/08 00:36:17;;;;;;;;;;;;;;;5.74;95.57;99161.88;1750795;82;20402;-86
2021/10/08 00:38:42;;;;;;;;;;;;;;;5.74;95.15;99168.59;1750789;82;21746;-82
2021/10/08 00:41:18;;;;;;;;;;;;;;;5.70;94.49;99171.41;1750810;82;20689;-86
2021/10/08 00:43:40;;;;;;;;;;;;;;;5.69;94.44;99170.29;1747551;82;20078;-86
2021/10/08 00:46:08;;;;;;;;;;;;;;;5.62;94.96;99167.12;1778374;80;20409;-82
2021/10/08 00:48:37;;;;;;;;;;;;;;;5.67;95.58;99171.86;1748327;80;20116;-86
2021/10/08 00:51:09;;;;;;;;;;;;;;;5.71;95.11;99174.39;1776607;79;20129;-86
2021/10/08 00:53:35;;;;;;;;;;;;;;;5.77;94.69;99178.91;1778551;80;20081;-82
2021/10/08 00:56:02;;;;;;;;;;;;;;;5.79;94.71;99178.16;1778561;80;20140;-82
2021/10/08 00:58:30;;;;;;;;;;;;;;;5.82;94.51;99181.77;1778330;80;20208;-82
2021/10/08 01:00:58;;;;;;;;;;;;;;;5.80;94.12;99182.48;1778619;80;20155;-85
2021/10/08 01:03:31;;;;;;;;;;;;;;;5.80;93.78;99189.21;1775463;79;20141;-86
2021/10/08 01:05:55;;;;;;;;;;;;;;;5.74;93.73;99182.05;1777844;80;20137;-86
2021/10/08 01:08:23;;;;;;;;;;;;;;;5.70;93.93;99176.79;1778519;80;20172;-83
2021/10/08 01:11:01;;;;;;;;;;;;;;;;;;;;;
2021/10/08 01:13:23;;;;;;;;;;;;;;;5.71;93.71;99179.78;1773131;79;20400;-82
2021/10/08 01:15:55;;;;;;;;;;;;;;;5.70;92.77;99185.37;1771902;80;20154;-86
2021/10/08 01:18:23;;;;;;;;;;;;;;;5.59;94.65;99171.61;1778705;80;20126;-82
2021/10/08 01:20:48;;;;;;;;;;;;;;;5.62;94.98;99179.23;1748931;80;20141;-82
2021/10/08 01:23:16;;;;;;;;;;;;;;;5.69;95.40;99181.05;1778859;79;20687;-86
2021/10/08 01:25:42;;;;;;;;;;;;;;;5.74;95.07;99183.91;1778275;80;20176;-82
2021/10/08 01:28:14;;;;;;;;;;;;;;;5.78;94.91;99181.07;1778175;80;20148;-82
2021/10/08 01:30:43;;;;;;;;;;;;;;;5.79;94.56;99182.71;1778650;80;20104;-82
2021/10/08 01:33:11;;;;;;;;;;;;;;;5.85;93.84;99185.35;1777926;80;20441;-82
2021/10/08 01:35:41;;;;;;;;;;;;;;;5.87;94.21;99180.56;1777404;79;20125;-82
2021/10/08 01:38:09;;;;;;;;;;;;;;;5.89;94.03;99178.47;1778272;80;20203;-82
2021/10/08 01:40:37;;;;;;;;;;;;;;;5.93;93.13;99181.06;1778471;80;21169;-82
2021/10/08 01:43:02;;;;;;;;;;;;;;;5.90;93.95;99185.56;1778410;80;20176;-86
2021/10/08 01:45:35;;;;;;;;;;;;;;;6.02;93.66;99186.17;1778675;80;20163;-86
2021/10/08 01:47:58;;;;;;;;;;;;;;;6.04;94.36;99184.89;1776489;80;20258;-85
2021/10/08 01:50:24;;;;;;;;;;;;;;;6.06;94.56;99184.14;1776597;80;20250;-82
2021/10/08 01:52:58;;;;;;;;;;;;;;;6.03;94.50;99180.55;1778840;80;20592;-82
2021/10/08 01:55:20;;;;;;;;;;;;;;;6.06;93.56;99183.31;1776853;80;20129;-82
2021/10/08 01:57:50;;;;;;;;;;;;;;;6.02;94.22;99190.20;1778828;79;20168;-86
2021/10/08 02:00:17;;;;;;;;;;;;;;;6.08;93.54;99183.42;1748416;80;20120;-86
2021/10/08 02:02:45;;;;;;;;;;;;;;;6.12;92.90;99184.60;1778480;80;20081;-86
2021/10/08 02:05:15;;;;;;;;;;;;;;;6.12;92.33;99186.47;1778845;80;21069;-82
2021/10/08 02:07:43;;;;;;;;;;;;;;;6.09;92.45;99184.23;1778088;79;20125;-85
2021/10/08 02:10:08;;;;;;;;;;;;;;;6.09;92.07;99186.41;1778886;80;20129;-85
2021/10/08 02:12:34;;;;;;;;;;;;;;;6.04;92.20;99188.11;1778983;80;20191;-82
2021/10/08 02:15:00;;;;;;;;;;;;;;;6.01;92.25;99193.94;1778968;80;20680;-82
2021/10/08 02:17:26;;;;;;;;;;;;;;;5.97;92.33;99190.03;1778887;80;21623;-82
2021/10/08 02:19:51;;;;;;;;;;;;;;;6.03;92.68;99192.66;1778828;80;20738;-82
2021/10/08 02:22:20;;;;;;;;;;;;;;;6.12;92.89;99191.86;1778865;80;20226;-86
2021/10/08 02:24:48;;;;;;;;;;;;;;;6.20;92.50;99198.30;1747701;80;20129;-82
2021/10/08 02:27:16;;;;;;;;;;;;;;;6.15;92.04;99203.02;1748949;80;20096;-85
2021/10/08 02:29:42;;;;;;;;;;;;;;;6.04;91.90;99201.56;1778949;80;21157;-82
2021/10/08 02:32:10;;;;;;;;;;;;;;;5.98;92.13;99205.95;1778869;80;20373;-82
2021/10/08 02:34:39;;;;;;;;;;;;;;;5.92;92.43;99204.98;1778641;80;20195;-86
2021/10/08 02:37:03;;;;;;;;;;;;;;;5.96;92.22;99203.19;1778487;80;20444;-82
2021/10/08 02:39:31;;;;;;;;;;;;;;;5.91;92.18;99198.48;1778990;80;20141;-82
2021/10/08 02:42:05;;;;;;;;;;;;;;;5.86;92.10;99201.79;1778953;80;20212;-85
2021/10/08 02:44:28;;;;;;;;;;;;;;;5.78;92.54;99181.07;1775076;80;20081;-86
2021/10/08 02:47:02;;;;;;;;;;;;;;;5.94;92.38;99204.76;1784705;80;20258;-86
2021/10/08 02:49:24;;;;;;;;;;;;;;;6.00;92.38;99197.16;1754413;80;20160;-85
2021/10/08 02:51:54;;;;;;;;;;;;;;;6.04;91.56;99204.25;1782415;80;20168;-85
2021/10/08 02:54:22;;;;;;;;;;;;;;;5.92;91.46;99206.85;1784684;80;20144;-82
2021/10/08 02:56:59;;;;;;;;;;;;;;;;;;;;;
2021/10/08 02:59:32;;;;;;;;;;;;;;;;;;;;;
2021/10/08 03:02:01;;;;;;;;;;;;;;;;;;;;;
2021/10/08 03:04:22;;;;;;;;;;;;;;;5.83;92.00;99213.00;1632536;87;20163;-82
2021/10/08 03:06:59;;;;;;;;;;;;;;;5.87;91.89;99217.41;1570855;90;20240;-85
2021/10/08 03:09:31;;;;;;;;;;;;;;;;;;;;;
2021/10/08 03:12:02;;;;;;;;;;;;;;;;;;;;;
2021/10/08 03:14:29;;;;;;;;;;;;;;;5.80;91.59;99214.77;1612184;88;20155;-86
2021/10/08 03:16:59;;;;;;;;;;;;;;;5.71;91.43;99222.80;1673185;85;20151;-86
2021/10/08 03:19:31;;;;;;;;;;;;;;;;;;;;;
2021/10/08 03:22:05;;;;;;;;;;;;;;;;;;;;;
2021/10/08 03:24:32;;;;;;;;;;;;;;;;;;;;;
2021/10/08 03:26:54;;;;;;;;;;;;;;;5.73;91.35;99222.61;1605676;80;20266;-86
2021/10/08 03:29:36;;;;;;;;;;;;;;;;;;;;;
2021/10/08 03:32:00;;;;;;;;;;;;;;;5.65;91.29;99225.88;1687922;84;20277;-86
2021/10/08 03:34:24;;;;;;;;;;;;;;;5.60;91.21;99224.34;1687683;84;20206;-86
2021/10/08 03:37:07;;;;;;;;;;;;;;;;;;;;;
2021/10/08 03:39:36;;;;;;;;;;;;;;;;;;;;;
2021/10/08 03:41:54;;;;;;;;;;;;;;;5.45;91.25;99231.89;1611116;89;20479;-85
2021/10/08 03:44:21;;;;;;;;;;;;;;;5.39;91.32;99227.41;1637185;87;20479;-81
2021/10/08 03:46:58;;;;;;;;;;;;;;;5.31;91.61;99231.17;1638066;87;20144;-87
2021/10/08 03:49:19;;;;;;;;;;;;;;;5.34;91.73;99229.91;1635223;87;20234;-86
2021/10/08 03:51:49;;;;;;;;;;;;;;;5.37;91.44;99234.84;1669234;86;20136;-86
2021/10/08 03:54:16;;;;;;;;;;;;;;;5.29;91.81;99235.91;1693369;84;20183;-82
2021/10/08 03:56:42;;;;;;;;;;;;;;;5.28;91.55;99233.45;1692998;83;20717;-86
2021/10/08 03:59:08;;;;;;;;;;;;;;;5.26;91.81;99235.53;1693232;84;20316;-85
2021/10/08 04:01:35;;;;;;;;;;;;;;;5.25;91.82;99234.71;1693053;84;20241;-82
2021/10/08 04:04:06;;;;;;;;;;;;;;;5.25;91.60;99229.34;1689850;84;20183;-87
2021/10/08 04:06:37;;;;;;;;;;;;;;;5.27;91.92;99235.31;1691591;84;20222;-86
2021/10/08 04:09:01;;;;;;;;;;;;;;;5.31;91.89;99236.55;1692634;83;21077;-82
2021/10/08 04:11:36;;;;;;;;;;;;;;;5.35;91.60;99239.61;1777060;80;20388;-86
2021/10/08 04:13:58;;;;;;;;;;;;;;;5.37;91.46;99238.87;1750485;82;20151;-82
2021/10/08 04:16:30;;;;;;;;;;;;;;;5.31;91.41;99243.78;1782532;80;20141;-82
2021/10/08 04:19:02;;;;;;;;;;;;;;;5.27;91.45;99241.21;1746287;82;20152;-85
2021/10/08 04:21:27;;;;;;;;;;;;;;;5.17;91.55;99236.83;1748033;80;20083;-82
2021/10/08 04:23:54;;;;;;;;;;;;;;;5.16;91.89;99236.00;1738848;82;20414;-82
2021/10/08 04:26:20;;;;;;;;;;;;;;;5.22;91.72;99237.84;1755390;81;20669;-86
2021/10/08 04:28:56;;;;;;;;;;;;;;;;;;;;;
2021/10/08 04:31:16;;;;;;;;;;;;;;;5.18;91.53;99249.22;1783307;80;20144;-86
2021/10/08 04:33:45;;;;;;;;;;;;;;;5.18;91.43;99250.56;1772220;81;21133;-82
2021/10/08 04:36:13;;;;;;;;;;;;;;;5.19;91.27;99246.84;1784945;80;20433;-86
2021/10/08 04:38:45;;;;;;;;;;;;;;;5.15;91.52;99254.52;1697669;84;20163;-86
2021/10/08 04:41:18;;;;;;;;;;;;;;;5.16;91.52;99251.30;1696900;84;20155;-82
2021/10/08 04:43:38;;;;;;;;;;;;;;;5.18;91.49;99260.80;1779188;80;20392;-82
2021/10/08 04:46:04;;;;;;;;;;;;;;;5.23;91.11;99260.98;1785567;80;21039;-82
2021/10/08 04:48:32;;;;;;;;;;;;;;;5.21;91.13;99268.45;1785438;80;20550;-82
2021/10/08 04:51:04;;;;;;;;;;;;;;;5.17;91.33;99263.18;1782167;80;20166;-82
2021/10/08 04:53:35;;;;;;;;;;;;;;;5.16;91.12;99268.25;1784987;80;20132;-82
2021/10/08 04:56:16;;;;;;;;;;;;;;;5.14;90.39;99271.67;1774898;79;20176;-86
2021/10/08 04:58:32;;;;;;;;;;;;;;;5.09;90.82;99280.36;1784302;80;21258;-86
2021/10/08 05:01:09;;;;;;;;;;;;;;;5.19;91.29;99281.77;1756331;80;20156;-87
2021/10/08 05:03:31;;;;;;;;;;;;;;;5.21;90.96;99275.16;1785700;80;20420;-82
2021/10/08 05:05:59;;;;;;;;;;;;;;;5.17;91.30;99284.67;1754275;82;20142;-87
2021/10/08 05:08:25;;;;;;;;;;;;;;;5.26;92.35;99288.77;1750355;82;20132;-82
2021/10/08 05:11:04;;;;;;;;;;;;;;;5.29;91.84;99287.50;1737924;81;20146;-87
2021/10/08 05:13:28;;;;;;;;;;;;;;;5.21;92.16;99295.31;1781177;80;20144;-82
2021/10/08 05:15:58;;;;;;;;;;;;;;;5.18;91.86;99289.53;1670665;80;20174;-86
2021/10/08 05:18:36;;;;;;;;;;;;;;;;;;;;;
2021/10/08 05:20:53;;;;;;;;;;;;;;;5.33;91.47;99292.77;1778888;80;20412;-85
2021/10/08 05:23:21;;;;;;;;;;;;;;;5.26;91.33;99287.94;1785771;80;21074;-86
2021/10/08 05:25:54;;;;;;;;;;;;;;;5.27;91.54;99297.65;1785354;80;20113;-85
2021/10/08 05:28:26;;;;;;;;;;;;;;;5.25;91.35;99299.21;1782474;80;20136;-86
2021/10/08 05:31:01;;;;;;;;;;;;;;;;;;;;;
2021/10/08 05:33:25;;;;;;;;;;;;;;;5.29;91.03;99303.62;1750335;81;20184;-86
2021/10/08 05:35:49;;;;;;;;;;;;;;;5.29;91.32;99311.17;1659272;81;20378;-82
2021/10/08 05:38:24;;;;;;;;;;;;;;;5.29;90.79;99300.42;1771915;81;20125;-82
2021/10/08 05:40:48;;;;;;;;;;;;;;;5.28;90.92;99301.98;1680100;85;20100;-83
2021/10/08 05:43:19;;;;;;;;;;;;;;;5.33;91.19;99300.31;1759917;81;20215;-82
2021/10/08 05:45:44;;;;;;;;;;;;;;;5.34;90.88;99303.30;1772014;81;20140;-82
2021/10/08 05:48:10;;;;;;;;;;;;;;;5.30;91.01;99303.96;1771921;81;21045;-87
2021/10/08 05:50:38;;;;;;;;;;;;;;;5.15;91.58;99304.75;1766459;81;20125;-82
2021/10/08 05:53:09;;;;;;;;;;;;;;;5.17;92.10;99301.32;1771821;81;20405;-82
2021/10/08 05:55:45;;;;;;;;;;;;;;;5.21;93.19;99311.45;1771694;81;20178;-87
2021/10/08 05:58:06;;;;;;;;;;;;;;;5.20;93.92;99315.66;1767535;81;20137;-82
2021/10/08 06:00:39;;;;;;;;;;;;;;;5.19;93.51;99317.52;1771770;81;21030;-82
2021/10/08 06:03:08;;;;;;;;;;;;;;;5.26;92.91;99313.47;1765209;81;20097;-86
2021/10/08 06:05:36;;;;;;;;;;;;;;;5.26;92.35;99315.64;1767345;81;20149;-82
2021/10/08 06:08:19;;;;;;;;;;;;;;;;;;;;;
2021/10/08 06:10:44;;;;;;;;;;;;;;;5.20;93.65;99325.06;1765618;81;20165;-82
2021/10/08 06:13:14;;;;;;;;;;;;;;;5.12;93.89;99334.71;1778096;80;20400;-82
2021/10/08 06:15:50;;;;;;;;;;;;;;;;;;;;;
2021/10/08 06:18:21;;;;;;;;;;;;;;;;;;;;;
2021/10/08 06:20:47;;;;;;;;;;;;;;;5.35;92.91;99337.72;1739334;82;20131;-83
2021/10/08 06:23:26;;;;;;;;;;;;;;;;;;;;;
2021/10/08 06:26:02;;;;;;;;;;;;;;;;;;;;;
2021/10/08 06:28:28;;;;;;;;;;;;;;;5.59;92.23;99342.88;1528499;92;20163;-88
2021/10/08 06:31:51;;;;;;;;;;;;;;;;;;;;;
2021/10/08 06:33:39;;;;;;;;;;;;;;;;;;;;;
2021/10/08 06:36:08;;;;;;;;;;;;;;;;;;;;;
2021/10/08 06:38:42;;;;;;;;;;;;;;;;;;;;;
2021/10/08 06:41:16;;;;;;;;;;;;;;;;;;;;;
2021/10/08 06:43:39;;;;;;;;;;;;;;;5.69;91.55;99361.23;1480131;95;20170;-88
2021/10/08 06:46:23;;;;;;;;;;;;;;;;;;;;;
2021/10/08 06:48:53;;;;;;;;;;;;;;;5.79;91.28;99363.75;1404603;100;20189;-83
2021/10/08 06:51:25;;;;;;;;;;;;;;;;;;;;;
2021/10/08 06:54:00;;;;;;;;;;;;;;;5.77;90.46;99366.37;1347681;104;20161;-88
2021/10/08 06:56:29;;;;;;;;;;;;;;;5.97;90.60;99371.64;1411801;98;20443;-82
2021/10/08 06:59:10;;;;;;;;;;;;;;;6.04;90.44;99363.02;1467969;96;20195;-88
2021/10/08 07:23:40;;;;;;;;;;;;;;;;;;;;;
2021/10/08 07:26:16;;;;;;;;;;;;;;;;;;;;;
2021/10/08 07:36:37;;;;;;;;;;;;;;;;;;;;;
2021/10/08 07:39:09;;;;;;;;;;;;;;;;;;;;;
2021/10/08 07:48:52;;;;;;;;;;;;;;;;;;;;;
2021/10/08 07:51:20;;;;;;;;;;;;;;;;;;;;;
2021/10/08 07:53:54;;;;;;;;;;;;;;;;;;;;;
2021/10/08 08:01:37;;;;;;;;;;;;;;;;;;;;;
2021/10/08 08:04:14;;;;;;;;;;;;;;;;;;;;;
2021/10/08 08:06:53;;;;;;;;;;;;;;;;;;;;;
2021/10/08 08:09:20;;;;;;;;;;;;;;;;;;;;;
2021/10/08 09:23:49;;;;;;;;;;;;;;;;;;;;;
2021/10/08 09:34:18;;;;;;;;;;;;;;;;;;;;;
2021/10/08 09:36:42;;;;;;;;;;;;;;;;;;;;;
2021/10/08 10:28:58;;;;;;;;;;;;;;;;;;;;;
2021/10/08 10:31:56;;;;;;;;;;;;;;;;;;;;;
2021/10/08 11:15:39;;;;;;;;;;;;;;;;;;;;;
2021/10/08 15:29:16;;;;;;;;;;;;;;;;;;;;;
2021/10/08 15:31:49;;;;;;;;;;;;;;;;;;;;;
2021/10/08 15:37:00;;;;;;;;;;;;;;;;;;;;;
2021/10/08 15:44:53;;;;;;;;;;;;;;;;;;;;;
2021/10/08 18:30:09;;;;;;;;;;;;;;;;;;;;;
2021/10/08 18:32:40;;;;;;;;;;;;;;;;;;;;;
2021/10/08 19:51:05;;;;;;;;;;;;;;;;;;;;;
2021/10/08 20:36:45;;;;;;;;;;;;;;;;;;;;;
2021/10/08 20:42:02;;;;;;;;;;;;;;;;;;;;;
2021/10/08 20:44:38;;;;;;;;;;;;;;;;;;;;;
2021/10/08 20:47:12;;;;;;;;;;;;;;;;;;;;;
2021/10/08 21:05:05;;;;;;;;;;;;;;;;;;;;;
2021/10/08 21:07:27;;;;;;;;;;;;;;;;;;;;;
2021/10/08 21:10:40;;;;;;;;;;;;;;;;;;;;;
2021/10/08 21:12:52;;;;;;;;;;;;;;;;;;;;;
2021/10/08 21:22:58;;;;;;;;;;;;;;;;;;;;;
2021/10/08 21:25:30;;;;;;;;;;;;;;;2.07;87.56;99576.52;1701596;81;20190;-86
2021/10/08 21:28:09;;;;;;;;;;;;;;;;;;;;;
2021/10/08 21:30:46;;;;;;;;;;;;;;;;;;;;;
2021/10/08 22:43:01;;;;;;;;;;;;;;;;;;;;;
2021/10/08 22:45:19;;;;;;;;;;;;;;;;;;;;;
2021/10/08 22:55:37;;;;;;;;;;;;;;;;;;;;;
2021/10/08 22:58:08;;;;;;;;;;;;;;;;;;;;;
